• Join FlightAware (Why Join?)
  • Login
  • US Flag 
08:32PM EDT


 

Airport Tracker/Info


-or-


 

Live Flight TrackerFlight Track Log ✈ SWA378 ✈ 30-May-2013 ✈ KATL - KORF

Flight Track Log - Related Links

Times and Time Zones

All times are in EDT time to prevent confusion due to time zone crossing. See the SWA378 flight status page for this flight to view local times or setup timezone preferences in your user account.

Time Position Orientation Groundspeed Altitude Reporting Facility
EDT Latitude Longitude Course Direction KTS MPH feet Rate Location/Type
06:11PM 33.6333 -84.3833 90° East 185 213 3,000  Level Atlanta TRACON
06:12PM 33.6333 -84.3000 90° East 264 304 5,200 2,640 Climbing Atlanta TRACON
06:14PM 33.6356 -84.0489 89° East 321 369 12,300 3,120 Climbing Atlanta Center
06:15PM 33.6439 -83.9339 85° East 334 384 16,100 3,300 Climbing Atlanta Center
06:16PM 33.6522 -83.8067 85° East 351 404 18,900 2,880 Climbing Atlanta Center
06:17PM 33.6600 -83.6744 86° East 386 444 21,900 2,640 Climbing Atlanta Center
06:18PM 33.6972 -83.5444 71° East 397 457 24,200 2,400 Climbing Atlanta Center
06:19PM 33.7531 -83.4167 62° Northeast 418 481 26,700 2,160 Climbing Atlanta Center
06:20PM 33.8022 -83.2814 66° East 431 496 28,600 1,920 Climbing Atlanta Center
06:21PM 33.8597 -83.1433 63° Northeast 448 516 30,600 1,860 Climbing Atlanta Center
06:22PM 33.9172 -83.0000 64° Northeast 453 521 32,400 1,980 Climbing Atlanta Center
06:23PM 33.9744 -82.8564 64° Northeast 463 533 34,600 1,980 Climbing Atlanta Center
06:24PM 34.0314 -82.7153 64° Northeast 463 533 36,400 3,180 Climbing Atlanta Center
06:25PM 34.0881 -82.5764 64° Northeast 458 527 41,000 1,380 Climbing Atlanta Center
06:26PM 34.1447 -82.4350 64° Northeast 458 527 39,200 -180 Descending Atlanta Center
06:27PM 34.1992 -82.2933 65° Northeast 458 527 40,700 900 Climbing Atlanta Center
06:28PM 34.2536 -82.1539 65° Northeast 453 521 41,000 120 Climbing Atlanta Center
06:29PM 34.3183 -82.0217 59° Northeast 448 516 41,000  Level Atlanta Center
06:30PM 34.3850 -81.8917 58° Northeast 448 516 41,000  Level Atlanta Center
06:31PM 34.4514 -81.7592 59° Northeast 454 522 41,000  Level Atlanta Center
06:32PM 34.5178 -81.6261 59° Northeast 454 522 41,000  Level Atlanta Center
06:33PM 34.5797 -81.4956 60° Northeast 454 522 41,000  Level Atlanta Center
06:34PM 34.6439 -81.3675 59° Northeast 449 517 41,000  Level Atlanta Center
06:35PM 34.7117 -81.2314 59° Northeast 455 524 41,000  Level Atlanta Center
06:36PM 34.7753 -81.0953 60° Northeast 455 524 41,000 -540 Level Atlanta Center
06:37PM 34.8411 -80.9639 59° Northeast 456 525 40,000 -1,020 Descending Atlanta Center
06:38PM 34.9064 -80.8272 60° Northeast 456 525 39,000 -960 Descending Atlanta Center
06:39PM 34.9736 -80.6928 59° Northeast 456 525 38,100 -900 Descending Atlanta Center
06:42PM 35.1233 -80.3761 60° Northeast 453 521 36,000 -900 Descending Washington Center
06:43PM 35.1872 -80.2428 60° Northeast 448 516 35,100 -540 Descending Washington Center
06:44PM 35.2506 -80.1117 59° Northeast 448 516 35,000 -60 Descending Washington Center
06:45PM 35.3094 -79.9928 59° Northeast 448 516 35,000  Level Washington Center
06:46PM 35.3706 -79.8586 61° Northeast 448 516 35,000  Level Washington Center
06:47PM 35.4297 -79.7217 62° Northeast 448 516 35,000 -60 Level Washington Center
06:48PM 35.4700 -79.5731 72° East 448 516 34,900 -660 Descending Washington Center
06:49PM 35.5103 -79.4297 71° East 448 516 33,800 -1,140 Descending Washington Center
06:50PM 35.5569 -79.2736 70° East 437 503 32,700 -1,020 Descending Washington Center
06:51PM 35.5900 -79.1500 72° East 432 497 31,800 -1,020 Descending Washington Center
06:52PM 35.6272 -79.0111 72° East 432 497 30,700 -1,080 Descending Washington Center
06:53PM 35.6667 -78.8747 70° East 432 497 29,700 -900 Descending Washington Center
06:54PM 35.7083 -78.7231 71° East 427 491 29,000 -360 Descending Washington Center
06:55PM 35.7450 -78.5914 71° East 416 479 29,000 -360 Level Washington Center
06:56PM 35.7794 -78.4594 72° East 406 467 28,300 -840 Descending Washington Center
06:57PM 35.8139 -78.3303 72° East 401 461 27,400 -1,020 Descending Washington Center
06:58PM 35.8458 -78.2031 73° East 401 461 26,300 -1,080 Descending Washington Center
06:59PM 35.8800 -78.0786 71° East 396 456 25,300 -1,020 Descending Washington Center
07:00PM 35.9136 -77.9542 72° East 391 450 24,300 -1,020 Descending Washington Center
07:01PM 35.9431 -77.8344 73° East 372 428 23,300 -1,020 Descending Washington Center
07:02PM 35.9767 -77.7147 71° East 367 422 22,300 -1,020 Descending Washington Center
07:03PM 36.0244 -77.6056 62° Northeast 356 410 21,300 -1,020 Descending Washington Center
07:04PM 36.0761 -77.4989 59° Northeast 351 404 20,300 -1,020 Descending Washington Center
07:05PM 36.1278 -77.3947 58° Northeast 351 404 19,300 -1,020 Descending Washington Center
07:06PM 36.1753 -77.2903 61° Northeast 351 404 18,300 -900 Descending Washington Center
07:07PM 36.2225 -77.1883 60° Northeast 345 397 17,500 -900 Descending Washington Center
07:07PM 36.2589 -77.1169 58° Northeast 344 396 16,800 -960 Descending Washington Center
07:08PM 36.2656 -77.0964 68° East 345 397 16,600 -960 Descending Washington Center
07:09PM 36.3128 -76.9967 60° Northeast 334 384 15,600 -1,080 Descending Washington Center
07:09PM 36.3511 -76.9228 57° Northeast 327 376 14,800 -1,020 Descending Washington Center
07:10PM 36.3575 -76.8997 71° East 327 376 14,600 -1,140 Descending Washington Center
07:10PM 36.3958 -76.8256 57° Northeast 323 372 13,700 -900 Descending Washington Center
07:11PM 36.4044 -76.8075 59° Northeast 327 376 13,700 -1,020 Level Washington Center
07:11PM 36.4386 -76.7306 61° Northeast 318 366 12,700 -1,140 Descending Washington Center
07:12PM 36.4472 -76.7100 62° Northeast 321 369 12,600 -1,020 Descending Washington Center
07:12PM 36.4853 -76.6306 59° Northeast 310 357 11,700 -1,140 Descending Washington Center
07:13PM 36.4897 -76.6175 67° East 316 364 11,500 -1,020 Descending Washington Center
07:13PM 36.5258 -76.5406 60° Northeast 301 346 10,700 -1,080 Descending Washington Center
07:14PM 36.5681 -76.4481 60° Northeast 295 339 9,600 -1,140 Descending Washington Center
07:15PM 36.6208 -76.3761 48° Northeast 296 341 8,500 -1,140 Descending Washington Center
07:17PM 36.6942 -76.3119 35° Northeast 278 320 7,100 -1,200 Descending Washington Center
07:17PM 36.7486 -76.2683 33° Northeast 271 312 6,100 -1,080 Descending Washington Center
07:18PM 36.8117 -76.2119 36° Northeast 265 305 5,100 -1,020 Descending Washington Center